Airfield :
LOGIN :

Register | Disclaimer

   EN    FR    IT 

 










Legend :    VFR   Marginal VFR   IFR   Intensive IFR   Very Intensive IFR
Visi :
Ceiling :
>= 8 km
>= 3000ft
5 to 8 km
1000 to 3000 ft
1500m to 5 km
500 to 1000 ft
800 to 1500m
200 to 500 ft
< 800m
< 200 ft
Symbols :   Thunderstorms  Fog  Heavy snow  Heavy precipitations  Wind > 20 kt
SIGMETs :     Misc.  Thunderstorms  Icing  Turbulence  Mountain Waves  Volcanic Ashes






- Airport Elevation : 407 ft


EGDM - MoD Boscombe Down Amesbury

CURRENT METAR :
  • 281250Z 19013KT 8000 -DZ BKN003 OVC008 09/09 Q1000 BECMG 22015G25KT BKN005 RMK YLO2 BECMG YLO1

EXPIRED METARs :
  • 281221Z 17014KT 4000 -RA BKN003 OVC008 08/08 Q1001 BECMG 5000 BKN005 RMK YLO2 BECMG YLO1
  • 281150Z 16017KT 8000 -RADZ BKN004 OVC010 07/07 Q1002 BECMG BKN005 RMK YLO2 BECMG YLO1
  • 281120Z 16015KT 5000 RADZ BKN006 OVC010 06/06 Q1003 TEMPO 8000 -RADZ FEW006 RMK YLO1 TEMPO GRN
  • 281050Z 17018G28KT 4000 RA BKN005 OVC010 06/05 Q1004 TEMPO 6000 -RADZ RMK YLO1 TEMPO YLO1
  • 281020Z 17019KT 4000 RADZ BKN004 OVC009 06/05 Q1005 TEMPO 5000 -RADZ FEW004 OVC009 RMK YLO2 TEMPO GRN

TAF AMD TAF EGDM
Valid from the 28 at 13:00 until the 28 at 18:00 UTC


281302Z 2813/2818 17016G26KT 8000 -RADZ BKN010
BECMG 2813/2816 22018G28KT
TEMPO 2813/2818 3000 RADZ SCT005
PROB30
TEMPO 2813/2816 2000 +RA SCT003



MET'MAP, your aeronautical weather chart ! - Copyright ORBIFLY December 2007 - Disclaimer

ORBIFLY MET'MAP TEAM :

Programming & Development : Alexandra Zaïnal
Concept & original design : Baudouin d'Aumeries
Assistance for programming : Marc-Olivier Méhu
Technical & hardware support : Manuel Goepfert

Contact : metmap@orbifly.com




SOURCES & CREDITS :

   NOAA